Kennicott — WCY2920 — position and weather

sailwx.info

Track history (hours):
 
Tides and Currents Weather Stations Pressure Air Temp Water Temp Dewpoint Dewpoint Depression Visibility Wind Speed Wind Dir Waves Ship Positions

Kennicott

Owner: ALASKA, STATE OF, Anchorage, AK. More information available from US FCC via Universal Licensing System and Coast Guard Vessel Documentation Center.

Last reported at 2020-Aug-09 23:14 UTC. Time now 2020-Aug-10 02:38 UTC.
Position N 52°40' W 128°32'.

Type: Passenger vessel. MMSI: 368250000.

Date/timePositionNaut miles runAvg speedWind from/ knotsBaromVisibWave heightAir tempDewpointWater temp
2020-Aug-09 23:14N 52°40' W 128°32'3912.0
2020-Aug-09 20:00N 52°05' W 128°05'2113.7
2020-Aug-09 18:31N 51°45' W 127°56'3216.0
2020-Aug-09 16:31N 51°13' W 127°51'2415.8
2020-Aug-09 15:00N 50°56' W 127°26'7115.8
2020-Aug-09 10:31N 50°23' W 125°46'1615.6
2020-Aug-09 09:30N 50°16' W 125°24'2914.4
2020-Aug-09 07:30N 49°52' W 125°00'816.0
2020-Aug-09 07:01N 49°46' W 124°52'2013.5
2020-Aug-09 05:30N 49°32' W 124°29'1313.0
2020-Aug-09 04:30N 49°24' W 124°13'6813.5
2020-Aug-08 23:30N 48°46' W 122°48'1212.0
2020-Aug-08 22:30N 48°39' W 122°33'4 4.3
2020-Aug-08 21:29N 48°43' W 122°31'0 0.0
2020-Aug-08 17:26N 48°43' W 122°31'0 0.0
2020-Aug-08 14:29N 48°43' W 122°31'0 0.1
2020-Aug-08 13:00N 48°43' W 122°31'11 7.2
2020-Aug-08 11:30N 48°45' W 122°47'714.6
2020-Aug-08 11:00N 48°48' W 122°57'2415.7
2020-Aug-08 09:30N 49°04' W 123°24'815.3
2020-Aug-08 09:00N 49°09' W 123°32'1616.0
2020-Aug-08 08:00N 49°21' W 123°49'4715.6
2020-Aug-08 05:00N 49°46' W 124°50'1616.1
2020-Aug-08 04:00N 49°57' W 125°08'612.5
2020-Aug-08 03:30N 50°02' W 125°13'713.9
2020-Aug-08 03:01N 50°07' W 125°21'7715.4
2020-Aug-07 22:00N 50°47' W 127°04'4015.8
2020-Aug-07 19:30N 51°13' W 127°52'3015.2
2020-Aug-07 17:30N 51°44' W 127°55'1413.6
2020-Aug-07 16:31N 51°57' W 127°56'2911.4
2020-Aug-07 14:00N 52°16' W 128°30'1414.3
2020-Aug-07 13:00N 52°30' W 128°27'815.8
2020-Aug-07 12:29N 52°38' W 128°31'8714.6
2020-Aug-07 06:30N 53°48' W 129°58'2315.6
2020-Aug-07 05:00N 54°07' W 130°23'816.1
2020-Aug-07 04:30N 54°13' W 130°30'815.9
2020-Aug-07 04:01N 54°21' W 130°36'816.3
2020-Aug-07 03:30N 54°29' W 130°38'  
Track history (hours):
 
Tides and Currents Weather Stations Pressure Air Temp Water Temp Dewpoint Dewpoint Depression Visibility Wind Speed Wind Dir Waves Ship Positions

Kennicott

Owner: ALASKA, STATE OF, Anchorage, AK. More information available from US FCC via Universal Licensing System and Coast Guard Vessel Documentation Center.

Last reported at 2020-Aug-09 23:14 UTC. Time now 2020-Aug-10 02:38 UTC.
Position N 52°40' W 128°32'.

Type: Passenger vessel. MMSI: 368250000.

Date/timePositionNaut miles runAvg speedWind from/ knotsBaromVisibWave heightAir tempDewpointWater temp
2020-Aug-09 23:14N 52°40' W 128°32'3912.0
2020-Aug-09 20:00N 52°05' W 128°05'2113.7
2020-Aug-09 18:31N 51°45' W 127°56'3216.0
2020-Aug-09 16:31N 51°13' W 127°51'2415.8
2020-Aug-09 15:00N 50°56' W 127°26'7115.8
2020-Aug-09 10:31N 50°23' W 125°46'1615.6
2020-Aug-09 09:30N 50°16' W 125°24'2914.4
2020-Aug-09 07:30N 49°52' W 125°00'816.0
2020-Aug-09 07:01N 49°46' W 124°52'2013.5
2020-Aug-09 05:30N 49°32' W 124°29'1313.0
2020-Aug-09 04:30N 49°24' W 124°13'6813.5
2020-Aug-08 23:30N 48°46' W 122°48'1212.0
2020-Aug-08 22:30N 48°39' W 122°33'4 4.3
2020-Aug-08 21:29N 48°43' W 122°31'0 0.0
2020-Aug-08 17:26N 48°43' W 122°31'0 0.0
2020-Aug-08 14:29N 48°43' W 122°31'0 0.1
2020-Aug-08 13:00N 48°43' W 122°31'11 7.2
2020-Aug-08 11:30N 48°45' W 122°47'714.6
2020-Aug-08 11:00N 48°48' W 122°57'2415.7
2020-Aug-08 09:30N 49°04' W 123°24'815.3
2020-Aug-08 09:00N 49°09' W 123°32'1616.0
2020-Aug-08 08:00N 49°21' W 123°49'4715.6
2020-Aug-08 05:00N 49°46' W 124°50'1616.1
2020-Aug-08 04:00N 49°57' W 125°08'612.5
2020-Aug-08 03:30N 50°02' W 125°13'713.9
2020-Aug-08 03:01N 50°07' W 125°21'7715.4
2020-Aug-07 22:00N 50°47' W 127°04'4015.8
2020-Aug-07 19:30N 51°13' W 127°52'3015.2
2020-Aug-07 17:30N 51°44' W 127°55'1413.6
2020-Aug-07 16:31N 51°57' W 127°56'2911.4
2020-Aug-07 14:00N 52°16' W 128°30'1414.3
2020-Aug-07 13:00N 52°30' W 128°27'815.8
2020-Aug-07 12:29N 52°38' W 128°31'8714.6
2020-Aug-07 06:30N 53°48' W 129°58'2315.6
2020-Aug-07 05:00N 54°07' W 130°23'816.1
2020-Aug-07 04:30N 54°13' W 130°30'815.9
2020-Aug-07 04:01N 54°21' W 130°36'816.3
2020-Aug-07 03:30N 54°29' W 130°38'  

Dump ship's entire track history